DIRECCIÓN GENERAL DE AERONÁUTICA CIVIL
DIRECCIÓN METEOROLÓGICA DE CHILE
INFORMACIÓN METAR Y TAF

FIR PUERTO MONTT

Estación: SCQP
METAR SCQP 010600Z 09004KT 050V110 9999 OVC024 14/13 Q1017=

TAF SCQP 010430Z 0106/0206 VRB02KT 9999 BKN020 TN12/0110Z TX22/0120Z TEMPO 0108/0114 6000 -DZ OVC006 BECMG 0116/0118 27010KT BKN030 BECMG 0204/0206 VRB02KT 9999 OVC010=

Estación: SCVD
METAR SCVD 010600Z AUTO 05003KT 9999 OVC027 15/13 Q1016=

TAF SCVD 281631Z 2818/0106 VRB02KT 9999 OVC010 TX20/2820Z TN14/0106Z=

Estación: SCJO
METAR SCJO 282200Z 26006KT 210V300 9999 FEW025 22/14 Q1014=

TAF SCJO 281631Z 2818/0106 VRB02KT 9999 OVC010 TX19/2820Z TN13/0106Z TEMPO 2818/2822 7000 SCT020=

Estación: SCTE
METAR SCTE 010600Z 02006KT 6000 OVC025 15/13 Q1016 NOSIG=

TAF SCTE 010430Z 0106/0206 34007KT 6000 BKN020 TN11/0109Z TX18/0120Z BECMG 0107/0109 OVC010 TEMPO 0108/0114 4000 -DZ BECMG 0116/0118 BKN030 BECMG 0202/0204 9999 OVC015=

Estación: SCPQ
METAR SCPQ 010600Z AUTO 34015KT 5000 SCT006 OVC015 13/12 Q1014=

TAF SCPQ 281631Z 2818/0106 VRB02KT 9999 FEW023 TX22/2820Z TN10/2812Z TEMPO 2823/0102 CAVOK BECMG 0102/0103 34007KT BKN015=

Estación: SCON
METAR SCON 010600Z AUTO 00000KT 6000 ///019 13/12 Q1014=

TAF SCON 281632Z 2818/0106 10005KT CAVOK TX20/2820Z TN12/0106Z BECMG 0100/0102 36007KT OVC007=

Estación: SCTN
SPECI SCTN 010641Z AUTO 03008KT //// R/////// DZ BR FEW014 OVC017 15/14 Q1015=

TAF SCTN 281631Z 2818/0106 34007KT 9999 OVC008 TX17/2820Z TN13/0106Z TEMPO 2818/2822 BKN030=

Estación: SCFT
METAR SCFT 010600Z AUTO VRB02KT //// SKC 15/09 Q1013=

NIL=

Estación: SCAP
METAR SCAP 010600Z AUTO VRB03KT //// // NSC 17/09 Q1018=

NIL=

Estación: SCMK
METAR SCMK 281600Z 02014KT 9999 FEW005 15/12 Q1014=

TAF SCMK 281632Z 2818/0106 VRB02KT 9999 SCT010 TX18/2820Z T12/0106Z BECMG 2823/0101 6000 -DZ OVC004=

Estación: SCAS
METAR SCAS 271900Z 25015KT CAVOK 24/10 Q1012=

NIL=

Estación: SCCY
METAR SCCY 010000Z 25006KT CAVOK 22/07 Q1010=

TAF SCCY 281632Z 2818/0106 25008KT CAVOK TX30/2819Z TN13/0106=

Estación: SCBA
METAR SCBA 010600Z AUTO 31011KT CAVOK 14/08 Q1009=

TAF SCBA 010430Z 0106/0206 31016KT 9999 SCT040 TN08/0110Z TX20/0120Z BECMG 0117/0119 30023G34KT TEMPO 0119/0200 6000 -SHRA BKN030 BECMG 0200/0202 34020KT BKN030=

Estación: SCCC
METAR SCCC 271900Z 03008KT CAVOK 22/07 Q1011=

NIL=

Estación: SCHR
METAR SCHR 271900Z 30007KT CAVOK 27/05 Q1008=

TAF SCHR 271033Z 2712/2800 VRB03KT 9999 FEW040 TN10/2712Z TX23/2718Z TEMPO 2714/2718 24005KT=


Volver